createdAt,value
2022-08-29T05:28:23.630Z,1169.17
2022-08-29T05:37:50.104Z,644.17
2022-08-29T05:47:27.034Z,673.33
2022-08-29T05:57:04.901Z,702.5
2022-08-29T06:06:42.708Z,735
2022-08-29T06:16:20.763Z,783.33
2022-08-29T06:25:58.031Z,811.67
2022-08-29T06:35:36.300Z,873.33
2022-08-29T06:45:14.300Z,906.67
2022-08-29T06:54:52.110Z,926.67
2022-08-29T07:04:29.791Z,947.5
2022-08-29T07:14:07.813Z,979.17
2022-08-29T07:23:45.853Z,1015
2022-08-29T07:33:23.965Z,1055
2022-08-29T07:43:01.982Z,1105
2022-08-29T07:52:39.988Z,1168.33
2022-08-29T08:02:17.997Z,1280
2022-08-29T08:11:56.467Z,1408.33
2022-08-29T08:21:34.504Z,1470
2022-08-29T08:31:14.191Z,1444.17
2022-08-29T08:40:51.042Z,1496.67
2022-08-29T08:50:29.714Z,1671.67
2022-08-29T09:00:08.142Z,1858.33
2022-08-29T09:09:46.425Z,2119.17
2022-08-29T09:19:24.767Z,2041.67
2022-08-29T09:29:02.934Z,2293.33
2022-08-29T09:38:41.810Z,3119.17
2022-08-29T09:48:20.768Z,2660
2022-08-29T09:58:02.196Z,21798.33
2022-08-29T10:07:59.959Z,26486.67
2022-08-29T10:17:44.794Z,22025.83
2022-08-29T10:27:23.910Z,27020
2022-08-29T10:37:03.861Z,23969.17
2022-08-29T10:46:43.514Z,22450
2022-08-29T10:56:11.695Z,20585
2022-08-29T11:05:52.973Z,23737.5
2022-08-29T11:15:40.988Z,24252.5
2022-08-29T11:25:16.003Z,23586.67
2022-08-29T11:34:59.593Z,26746.67
2022-08-29T11:44:40.882Z,31062.5
2022-08-29T11:54:12.945Z,33620.83
2022-08-29T12:03:57.622Z,32585.83
2022-08-29T12:13:38.788Z,34012.5
2022-08-29T12:23:23.279Z,37370.83
2022-08-29T12:32:56.633Z,32942.5
2022-08-29T12:42:35.131Z,35588.33
2022-08-29T12:52:04.141Z,23301.67
2022-08-29T13:01:44.990Z,27366.67
2022-08-29T13:11:27.287Z,33915
2022-08-29T13:21:14.916Z,28486.67
2022-08-29T13:30:56.319Z,30124.17
2022-08-29T13:40:34.308Z,24199.17
2022-08-29T13:50:10.156Z,21483.33
2022-08-29T13:59:51.329Z,15650.83
2022-08-29T14:09:28.022Z,19257.5
2022-08-29T14:19:07.059Z,10672.5
2022-08-29T14:28:52.265Z,13751.67
2022-08-29T14:38:31.183Z,13586.67
2022-08-29T14:48:19.036Z,14760.83
2022-08-29T14:57:58.012Z,10100.83
2022-08-29T15:07:30.355Z,9066.67
2022-08-29T15:17:05.260Z,9401.67
2022-08-29T15:26:40.715Z,7585.83
2022-08-29T15:36:09.916Z,6370.83
2022-08-29T15:45:38.227Z,3129.17
2022-08-29T15:55:10.302Z,3122.5
2022-08-29T16:04:48.107Z,3171.67
2022-08-29T16:23:57.322Z,1946.67
2022-08-29T16:33:32.952Z,1546.67
2022-08-29T16:43:08.520Z,1145
2022-08-29T16:52:44.947Z,944.17
2022-08-29T17:02:21.564Z,845
2022-08-29T17:11:59.195Z,588.33
2022-08-29T17:21:34.638Z,466.67
2022-08-29T17:31:10.692Z,369.17
2022-08-29T17:40:47.117Z,351.67
2022-08-29T17:50:23.871Z,195.83
2022-08-29T18:00:00.370Z,106.67
2022-08-29T18:09:36.718Z,49.17
2022-08-29T18:19:15.396Z,16.67
2022-08-29T18:28:50.377Z,3.33
2022-08-29T18:38:27.126Z,0.83
2022-08-29T18:48:03.552Z,0
2022-08-29T18:57:40.128Z,0
2022-08-29T19:07:16.840Z,0
2022-08-29T19:16:53.624Z,0
2022-08-29T19:26:30.121Z,0
2022-08-29T19:36:07.102Z,0
2022-08-29T19:45:44.283Z,0
2022-08-29T19:55:21.052Z,0
2022-08-29T20:04:58.143Z,0
2022-08-29T20:14:35.254Z,0
2022-08-29T20:24:15.652Z,0
2022-08-29T20:33:49.506Z,0
2022-08-29T20:43:26.403Z,0
2022-08-29T20:53:03.671Z,0
2022-08-29T21:02:40.661Z,0
2022-08-29T21:12:17.124Z,0
2022-08-29T21:21:54.015Z,0
2022-08-29T21:31:31.140Z,0
2022-08-29T21:41:07.865Z,0
2022-08-29T21:50:44.808Z,0
2022-08-29T22:00:21.997Z,0
2022-08-29T22:10:00.158Z,0
2022-08-29T22:19:36.328Z,0
2022-08-29T22:29:13.371Z,0
2022-08-29T22:38:53.634Z,0
2022-08-29T22:48:27.292Z,0
2022-08-29T22:58:04.212Z,0
2022-08-29T23:07:41.130Z,0
2022-08-29T23:17:18.208Z,0
2022-08-29T23:26:55.011Z,0
2022-08-29T23:36:32.229Z,0
2022-08-29T23:46:09.311Z,0
2022-08-29T23:55:46.510Z,0
